createdAt,value
2023-04-21T00:01:03.931Z,100.00
2023-04-21T00:03:34.081Z,100.00
2023-04-21T00:06:03.734Z,100.00
2023-04-21T00:08:33.249Z,100.00
2023-04-21T00:11:02.848Z,100.00
2023-04-21T00:13:32.331Z,100.00
2023-04-21T00:16:04.671Z,100.00
2023-04-21T00:18:34.179Z,100.00
2023-04-21T00:21:03.660Z,100.00
2023-04-21T00:23:33.157Z,100.00
2023-04-21T00:26:03.214Z,100.00
2023-04-21T00:28:32.904Z,100.00
2023-04-21T00:31:05.035Z,100.00
2023-04-21T00:33:34.570Z,100.00
2023-04-21T00:36:04.042Z,100.00
2023-04-21T00:38:33.574Z,100.00
2023-04-21T00:41:03.179Z,100.00
2023-04-21T00:43:32.722Z,100.00
2023-04-21T00:46:04.884Z,100.00
2023-04-21T00:48:34.405Z,100.00
2023-04-21T00:51:03.919Z,100.00
2023-04-21T00:53:33.543Z,100.00
2023-04-21T00:56:03.017Z,100.00
2023-04-21T00:58:32.860Z,100.00
2023-04-21T01:01:05.659Z,100.00
2023-04-21T01:03:35.379Z,100.00
2023-04-21T01:06:05.127Z,100.00
2023-04-21T01:08:35.005Z,100.00
2023-04-21T01:11:12.515Z,100.00
2023-04-21T01:13:42.311Z,100.00
2023-04-21T01:16:19.296Z,100.00
2023-04-21T01:18:48.998Z,100.00
2023-04-21T01:21:19.182Z,100.00
2023-04-21T01:23:51.312Z,100.00
2023-04-21T01:26:21.877Z,100.00
2023-04-21T01:28:51.588Z,100.00
2023-04-21T01:31:21.313Z,100.00
2023-04-21T01:33:50.824Z,100.00
2023-04-21T01:36:20.320Z,100.00
2023-04-21T01:38:52.413Z,100.00
2023-04-21T01:41:21.968Z,100.00
2023-04-21T01:43:51.579Z,100.00
2023-04-21T01:46:22.646Z,100.00
2023-04-21T01:48:52.233Z,100.00
2023-04-21T01:51:22.187Z,100.00
2023-04-21T01:53:54.330Z,100.00
2023-04-21T01:56:23.922Z,100.00
2023-04-21T01:58:53.438Z,100.00
2023-04-21T02:01:22.912Z,100.00
2023-04-21T02:03:52.572Z,100.00
2023-04-21T02:06:22.284Z,100.00
2023-04-21T02:08:54.318Z,100.00
2023-04-21T02:11:25.178Z,100.00
2023-04-21T02:13:55.216Z,100.00
2023-04-21T02:16:26.518Z,100.00
2023-04-21T02:18:57.049Z,100.00
2023-04-21T02:21:27.006Z,100.00
2023-04-21T02:23:59.117Z,100.00
2023-04-21T02:26:28.578Z,100.00
2023-04-21T02:28:58.095Z,100.00
2023-04-21T02:31:27.802Z,100.00
2023-04-21T02:33:57.437Z,100.00
2023-04-21T02:36:26.959Z,100.00
2023-04-21T02:38:59.036Z,100.00
2023-04-21T02:41:28.555Z,100.00
2023-04-21T02:43:58.038Z,100.00
2023-04-21T02:46:27.610Z,100.00
2023-04-21T02:48:57.227Z,100.00
2023-04-21T02:51:27.004Z,100.00
2023-04-21T02:53:59.276Z,100.00
2023-04-21T02:56:28.918Z,100.00
2023-04-21T02:58:58.377Z,100.00
2023-04-21T03:01:27.914Z,100.00
2023-04-21T03:03:57.593Z,100.00
2023-04-21T03:06:28.336Z,100.00
2023-04-21T03:09:00.520Z,100.00
2023-04-21T03:11:29.996Z,100.00
2023-04-21T03:13:59.476Z,100.00
2023-04-21T03:16:29.691Z,100.00
2023-04-21T03:18:59.243Z,100.00
2023-04-21T03:21:28.731Z,100.00
2023-04-21T03:24:00.921Z,100.00
2023-04-21T03:26:30.545Z,100.00
2023-04-21T03:29:00.083Z,100.00
2023-04-21T03:31:29.639Z,100.00
2023-04-21T03:33:59.146Z,100.00
2023-04-21T03:36:29.076Z,100.00
2023-04-21T03:39:12.691Z,100.00
2023-04-21T03:41:49.133Z,100.00
2023-04-21T03:44:18.607Z,100.00
2023-04-21T03:46:48.167Z,100.00
2023-04-21T03:49:17.667Z,100.00
2023-04-21T03:51:47.187Z,100.00
2023-04-21T03:54:19.398Z,100.00
2023-04-21T03:56:48.914Z,100.00
2023-04-21T03:59:18.807Z,100.00
2023-04-21T04:01:48.517Z,100.00
2023-04-21T04:04:18.264Z,100.00
2023-04-21T04:06:47.974Z,100.00
2023-04-21T04:09:20.220Z,100.00
2023-04-21T04:11:50.074Z,100.00
2023-04-21T04:14:19.600Z,100.00
2023-04-21T04:16:49.230Z,100.00
2023-04-21T04:19:18.963Z,100.00
2023-04-21T04:21:49.277Z,100.00
2023-04-21T04:24:21.791Z,100.00
2023-04-21T04:26:51.364Z,100.00
2023-04-21T04:29:21.971Z,100.00
2023-04-21T04:31:52.495Z,100.00
2023-04-21T04:34:23.362Z,100.00
2023-04-21T04:36:52.973Z,100.00
2023-04-21T04:39:25.820Z,100.00
2023-04-21T04:41:55.449Z,100.00
2023-04-21T04:44:25.961Z,100.00
2023-04-21T04:46:55.485Z,100.00
2023-04-21T04:49:26.083Z,100.00
2023-04-21T04:51:55.744Z,100.00
2023-04-21T04:54:29.126Z,100.00
2023-04-21T04:56:59.137Z,100.00
2023-04-21T04:59:30.051Z,100.00
2023-04-21T05:02:00.037Z,100.00
2023-04-21T05:04:29.841Z,100.00
2023-04-21T05:06:59.439Z,100.00
2023-04-21T05:09:31.489Z,100.00
2023-04-21T05:12:01.135Z,100.00
2023-04-21T05:14:31.035Z,100.00
2023-04-21T05:17:00.611Z,100.00
2023-04-21T05:19:30.183Z,100.00
2023-04-21T05:22:01.749Z,100.00
2023-04-21T05:24:33.798Z,100.00
2023-04-21T05:27:03.728Z,100.00
2023-04-21T05:29:34.320Z,100.00
2023-04-21T05:32:03.850Z,100.00
2023-04-21T05:34:33.606Z,100.00
2023-04-21T05:37:03.087Z,100.00
2023-04-21T05:39:35.138Z,100.00
2023-04-21T05:42:05.298Z,100.00
2023-04-21T05:44:34.814Z,100.00
2023-04-21T05:47:04.312Z,100.00
2023-04-21T05:49:33.811Z,100.00
2023-04-21T05:52:03.393Z,100.00
2023-04-21T05:54:35.924Z,100.00
2023-04-21T05:57:08.635Z,100.00
2023-04-21T05:59:38.170Z,100.00
2023-04-21T06:02:07.969Z,100.00
2023-04-21T06:04:37.665Z,100.00
2023-04-21T06:07:10.645Z,100.00
2023-04-21T06:09:43.436Z,100.00
2023-04-21T06:12:12.957Z,100.00
2023-04-21T06:14:42.505Z,100.00
2023-04-21T06:17:11.973Z,100.00
2023-04-21T06:19:41.969Z,100.00
2023-04-21T06:22:11.917Z,100.00
2023-04-21T06:24:43.963Z,100.00
2023-04-21T06:27:14.770Z,100.00
2023-04-21T06:29:45.409Z,100.00
2023-04-21T06:32:15.359Z,100.00
2023-04-21T06:34:44.797Z,100.00
2023-04-21T06:37:14.304Z,100.00
2023-04-21T06:39:46.506Z,100.00
2023-04-21T06:42:15.993Z,100.00
2023-04-21T06:44:45.580Z,100.00
2023-04-21T06:47:17.013Z,100.00
2023-04-21T06:49:46.648Z,100.00
2023-04-21T06:52:18.154Z,100.00
2023-04-21T06:54:50.957Z,100.00
2023-04-21T06:57:20.482Z,100.00
2023-04-21T06:59:49.982Z,100.00
2023-04-21T07:02:19.502Z,100.00
2023-04-21T07:04:49.065Z,100.00
2023-04-21T07:07:18.646Z,100.00
2023-04-21T07:09:50.942Z,100.00
2023-04-21T07:12:20.956Z,100.00
2023-04-21T07:14:50.580Z,100.00
2023-04-21T07:17:20.074Z,100.00
2023-04-21T07:19:51.869Z,100.00
2023-04-21T07:22:21.595Z,100.00
2023-04-21T07:24:53.645Z,100.00
2023-04-21T07:27:23.197Z,100.00
2023-04-21T07:29:52.738Z,100.00
2023-04-21T07:32:22.392Z,100.00
2023-04-21T07:34:51.907Z,100.00
2023-04-21T07:37:22.850Z,100.00
2023-04-21T07:39:55.712Z,100.00
2023-04-21T07:42:26.922Z,100.00
2023-04-21T07:44:57.715Z,100.00
2023-04-21T07:47:27.446Z,100.00
2023-04-21T07:49:56.997Z,100.00
2023-04-21T07:52:26.577Z,100.00
2023-04-21T07:54:58.679Z,100.00
2023-04-21T07:57:28.177Z,100.00
2023-04-21T07:59:57.656Z,100.00
2023-04-21T08:02:27.290Z,100.00
2023-04-21T08:04:56.955Z,100.00
2023-04-21T08:07:26.594Z,100.00
2023-04-21T08:09:59.002Z,100.00
2023-04-21T08:12:28.630Z,100.00
2023-04-21T08:14:58.159Z,100.00
2023-04-21T08:17:27.800Z,100.00
2023-04-21T08:19:59.133Z,100.00
2023-04-21T08:22:29.451Z,100.00
2023-04-21T08:25:01.634Z,100.00
2023-04-21T08:27:31.186Z,100.00
2023-04-21T08:30:01.013Z,100.00
2023-04-21T08:32:30.826Z,100.00
2023-04-21T08:35:00.472Z,100.00
2023-04-21T08:37:30.036Z,100.00
2023-04-21T08:40:02.148Z,100.00
2023-04-21T08:42:32.709Z,100.00
2023-04-21T08:45:02.206Z,100.00
2023-04-21T08:47:31.992Z,100.00
2023-04-21T08:50:01.923Z,100.00
2023-04-21T08:52:33.937Z,100.00
2023-04-21T08:55:07.612Z,100.00
2023-04-21T08:57:37.213Z,100.00
2023-04-21T09:00:08.488Z,100.00
2023-04-21T09:03:00.818Z,100.00
2023-04-21T09:05:33.717Z,100.00
2023-04-21T09:08:16.138Z,100.00
2023-04-21T09:10:49.630Z,100.00
2023-04-21T09:13:20.522Z,100.00
2023-04-21T09:15:52.384Z,100.00
2023-04-21T09:18:24.457Z,100.00
2023-04-21T09:20:55.687Z,100.00
2023-04-21T09:23:25.282Z,100.00
2023-04-21T09:25:57.552Z,100.00
2023-04-21T09:28:34.403Z,100.00
2023-04-21T09:31:03.969Z,100.00
2023-04-21T09:33:49.594Z,100.00
2023-04-21T09:36:28.104Z,100.00
2023-04-21T09:41:37.217Z,100.00
2023-04-21T09:44:07.099Z,100.00
2023-04-21T09:46:38.161Z,100.00
2023-04-21T09:49:08.170Z,100.00
2023-04-21T09:52:09.656Z,100.00
2023-04-21T09:54:32.654Z,100.00
2023-04-21T09:57:06.517Z,100.00
2023-04-21T09:59:38.598Z,100.00
2023-04-21T10:02:09.491Z,100.00
2023-04-21T10:04:40.327Z,100.00
2023-04-21T10:07:10.326Z,100.00
2023-04-21T10:09:49.175Z,100.00
2023-04-21T10:12:21.370Z,100.00
2023-04-21T10:14:54.148Z,100.00
2023-04-21T10:17:26.939Z,100.00
2023-04-21T10:19:58.240Z,100.00
2023-04-21T10:22:31.484Z,100.00
2023-04-21T10:25:02.293Z,100.00
2023-04-21T10:27:38.709Z,100.00
2023-04-21T10:30:26.743Z,100.00
2023-04-21T10:33:06.178Z,100.00
2023-04-21T10:36:05.112Z,100.00
2023-04-21T10:38:38.299Z,100.00
2023-04-21T10:41:29.121Z,100.00
2023-04-21T10:44:04.274Z,100.00
2023-04-21T10:46:37.949Z,100.00
2023-04-21T10:49:09.601Z,100.00
2023-04-21T10:52:05.983Z,100.00
2023-04-21T10:54:42.238Z,100.00
2023-04-21T10:57:13.898Z,100.00
2023-04-21T10:59:47.216Z,100.00
2023-04-21T11:02:18.085Z,100.00
2023-04-21T11:04:49.163Z,100.00
2023-04-21T11:07:20.198Z,100.00
2023-04-21T11:09:51.144Z,100.00
2023-04-21T11:12:21.265Z,100.00
2023-04-21T11:14:53.553Z,100.00
2023-04-21T11:17:24.624Z,100.00
2023-04-21T11:19:55.941Z,100.00
2023-04-21T11:22:26.994Z,100.00
2023-04-21T11:24:58.323Z,100.00
2023-04-21T11:27:29.948Z,100.00
2023-04-21T11:30:02.096Z,100.00
2023-04-21T11:32:31.695Z,100.00
2023-04-21T11:35:01.645Z,100.00
2023-04-21T11:37:32.027Z,100.00
2023-04-21T11:40:03.363Z,100.00
2023-04-21T11:42:33.377Z,100.00
2023-04-21T11:45:06.003Z,100.00
2023-04-21T11:47:37.670Z,100.00
2023-04-21T11:50:09.818Z,100.00
2023-04-21T11:52:41.405Z,100.00
2023-04-21T11:55:18.803Z,100.00
2023-04-21T11:57:48.635Z,100.00
2023-04-21T12:00:22.283Z,100.00
2023-04-21T12:02:57.639Z,100.00
2023-04-21T12:05:27.447Z,100.00
2023-04-21T12:07:59.692Z,100.00
2023-04-21T12:10:29.215Z,100.00
2023-04-21T12:12:59.047Z,100.00
2023-04-21T12:15:32.902Z,100.00
2023-04-21T12:18:02.381Z,100.00
2023-04-21T12:20:33.347Z,100.00
2023-04-21T12:23:03.212Z,100.00
2023-04-21T12:25:32.947Z,100.00
2023-04-21T12:28:02.674Z,100.00
2023-04-21T12:30:39.335Z,100.00
2023-04-21T12:33:11.625Z,100.00
2023-04-21T12:35:41.450Z,98.98
2023-04-21T12:38:10.980Z,98.72
2023-04-21T12:40:43.497Z,98.39
2023-04-21T12:43:13.048Z,98.09
2023-04-21T12:45:45.256Z,97.24
2023-04-21T12:48:14.917Z,99.28
2023-04-21T12:50:44.721Z,99.99
2023-04-21T12:53:14.525Z,100.00
2023-04-21T12:55:53.199Z,100.00
2023-04-21T12:58:33.392Z,100.00
2023-04-21T13:01:05.572Z,100.00
2023-04-21T13:03:35.391Z,100.00
2023-04-21T13:06:05.023Z,100.00
2023-04-21T13:08:34.580Z,100.00
2023-04-21T13:11:04.139Z,100.00
2023-04-21T13:13:33.821Z,100.00
2023-04-21T13:16:05.948Z,100.00
2023-04-21T13:18:36.115Z,100.00
2023-04-21T13:21:06.497Z,99.70
2023-04-21T13:23:36.105Z,100.00
2023-04-21T13:26:05.705Z,100.00
2023-04-21T13:28:35.295Z,99.24
2023-04-21T13:31:07.976Z,100.00
2023-04-21T13:33:38.038Z,98.77
2023-04-21T13:36:11.236Z,100.00
2023-04-21T13:38:42.552Z,100.00
2023-04-21T13:41:12.125Z,100.00
2023-04-21T13:43:41.676Z,98.95
2023-04-21T13:46:14.796Z,99.26
2023-04-21T13:48:44.422Z,98.19
2023-04-21T13:51:14.167Z,98.02
2023-04-21T13:53:43.675Z,96.99
2023-04-21T13:56:14.179Z,97.57
2023-04-21T13:58:44.303Z,95.56
2023-04-21T14:01:18.057Z,96.91
2023-04-21T14:03:49.602Z,96.47
2023-04-21T14:06:19.470Z,95.29
2023-04-21T14:08:49.087Z,96.83
2023-04-21T14:11:18.658Z,97.17
2023-04-21T14:14:07.522Z,97.44
2023-04-21T14:16:40.928Z,97.00
2023-04-21T14:19:10.713Z,96.56
2023-04-21T14:21:40.924Z,96.00
2023-04-21T14:24:10.626Z,96.14
2023-04-21T14:26:40.206Z,96.17
2023-04-21T14:29:09.716Z,97.02
2023-04-21T14:31:41.907Z,96.20
2023-04-21T14:34:11.703Z,95.78
2023-04-21T14:36:42.975Z,95.49
2023-04-21T14:39:12.550Z,93.31
2023-04-21T14:41:42.065Z,93.59
2023-04-21T14:44:11.562Z,93.19
2023-04-21T14:46:50.508Z,94.29
2023-04-21T14:49:26.966Z,94.63
2023-04-21T14:51:56.476Z,94.65
2023-04-21T14:54:26.148Z,94.85
2023-04-21T14:57:10.528Z,93.69
2023-04-21T14:59:47.002Z,94.42
2023-04-21T15:02:22.804Z,94.58
2023-04-21T15:04:52.866Z,94.68
2023-04-21T15:07:24.621Z,94.08
2023-04-21T15:09:55.610Z,94.31
2023-04-21T15:12:25.397Z,94.88
2023-04-21T15:14:54.948Z,94.26
2023-04-21T15:17:29.718Z,96.93
2023-04-21T15:19:59.326Z,96.54
2023-04-21T15:22:28.905Z,96.83
2023-04-21T15:24:58.734Z,96.16
2023-04-21T15:27:28.321Z,97.37
2023-04-21T15:29:58.459Z,96.19
2023-04-21T15:32:30.761Z,95.74
2023-04-21T15:35:01.422Z,96.20
2023-04-21T15:37:31.153Z,95.54
2023-04-21T15:40:00.806Z,96.23
2023-04-21T15:42:30.581Z,95.14
2023-04-21T15:45:02.241Z,95.22
2023-04-21T15:47:34.348Z,95.44
2023-04-21T15:50:04.546Z,95.90
2023-04-21T15:52:34.043Z,95.61
2023-04-21T15:55:03.636Z,94.02
2023-04-21T15:57:33.899Z,93.90
2023-04-21T16:00:04.327Z,93.53
2023-04-21T16:02:36.515Z,95.04
2023-04-21T16:05:06.774Z,95.43
2023-04-21T16:07:36.723Z,95.94
2023-04-21T16:10:06.754Z,96.88
2023-04-21T16:12:36.367Z,96.44
2023-04-21T16:15:22.945Z,97.69
2023-04-21T16:17:55.853Z,98.43
2023-04-21T16:20:25.529Z,99.34
2023-04-21T16:22:55.099Z,100.00
2023-04-21T16:25:24.748Z,100.00
2023-04-21T16:27:54.266Z,100.00
2023-04-21T16:30:24.034Z,100.00
2023-04-21T16:32:56.203Z,100.00
2023-04-21T16:35:25.740Z,100.00
2023-04-21T16:37:55.312Z,100.00
2023-04-21T16:40:25.328Z,100.00
2023-04-21T16:42:54.975Z,100.00
2023-04-21T16:45:24.487Z,100.00
2023-04-21T16:47:57.211Z,100.00
2023-04-21T16:50:27.230Z,100.00
2023-04-21T16:52:56.838Z,100.00
2023-04-21T16:55:26.351Z,100.00
2023-04-21T16:57:56.049Z,100.00
2023-04-21T17:00:25.772Z,100.00
2023-04-21T17:02:57.949Z,100.00
2023-04-21T17:05:27.582Z,100.00
2023-04-21T17:07:57.098Z,100.00
2023-04-21T17:10:27.219Z,100.00
2023-04-21T17:12:59.514Z,100.00
2023-04-21T17:15:29.066Z,100.00
2023-04-21T17:18:01.615Z,100.00
2023-04-21T17:20:31.252Z,100.00
2023-04-21T17:23:00.715Z,100.00
2023-04-21T17:25:30.399Z,100.00
2023-04-21T17:28:00.212Z,100.00
2023-04-21T17:30:29.733Z,100.00
2023-04-21T17:33:15.468Z,100.00
2023-04-21T17:36:02.213Z,100.00
2023-04-21T17:38:32.553Z,100.00
2023-04-21T17:41:03.113Z,100.00
2023-04-21T17:43:32.629Z,100.00
2023-04-21T17:46:02.227Z,100.00
2023-04-21T17:48:34.812Z,100.00
2023-04-21T17:51:04.348Z,100.00
2023-04-21T17:53:34.423Z,100.00
2023-04-21T17:56:04.005Z,100.00
2023-04-21T17:58:34.625Z,100.00
2023-04-21T18:01:04.424Z,100.00
2023-04-21T18:03:36.762Z,100.00
2023-04-21T18:06:07.136Z,100.00
2023-04-21T18:08:36.666Z,100.00
2023-04-21T18:11:06.318Z,100.00
2023-04-21T18:13:35.791Z,100.00
2023-04-21T18:16:05.390Z,100.00
2023-04-21T18:18:37.717Z,100.00
2023-04-21T18:21:07.314Z,100.00
2023-04-21T18:23:37.566Z,100.00
2023-04-21T18:26:08.482Z,100.00
2023-04-21T18:28:38.284Z,100.00
2023-04-21T18:31:08.039Z,100.00
2023-04-21T18:33:40.155Z,100.00
2023-04-21T18:36:10.483Z,100.00
2023-04-21T18:38:40.009Z,100.00
2023-04-21T18:41:09.534Z,100.00
2023-04-21T18:43:39.029Z,100.00
2023-04-21T18:46:08.790Z,100.00
2023-04-21T18:48:40.941Z,100.00
2023-04-21T18:51:12.218Z,100.00
2023-04-21T18:53:42.701Z,100.00
2023-04-21T18:56:13.962Z,100.00
2023-04-21T18:58:44.026Z,100.00
2023-04-21T19:01:13.601Z,100.00
2023-04-21T19:03:46.007Z,100.00
2023-04-21T19:06:15.861Z,100.00
2023-04-21T19:08:45.834Z,100.00
2023-04-21T19:11:17.254Z,100.00
2023-04-21T19:13:48.255Z,100.00
2023-04-21T19:16:17.862Z,100.00
2023-04-21T19:18:50.153Z,100.00
2023-04-21T19:21:19.799Z,100.00
2023-04-21T19:23:49.273Z,100.00
2023-04-21T19:26:21.873Z,100.00
2023-04-21T19:28:51.450Z,100.00
2023-04-21T19:31:24.059Z,100.00
2023-04-21T19:33:56.147Z,100.00
2023-04-21T19:36:26.314Z,100.00
2023-04-21T19:38:55.856Z,100.00
2023-04-21T19:41:25.403Z,100.00
2023-04-21T19:43:54.898Z,100.00
2023-04-21T19:46:24.875Z,100.00
2023-04-21T19:48:57.134Z,100.00
2023-04-21T19:51:27.391Z,100.00
2023-04-21T19:54:09.985Z,100.00
2023-04-21T19:56:40.788Z,100.00
2023-04-21T19:59:10.472Z,100.00
2023-04-21T20:01:40.112Z,100.00
2023-04-21T20:04:12.635Z,100.00
2023-04-21T20:06:42.456Z,100.00
2023-04-21T20:09:12.247Z,100.00
2023-04-21T20:11:41.722Z,100.00
2023-04-21T20:14:11.234Z,100.00
2023-04-21T20:16:40.721Z,100.00
2023-04-21T20:19:13.067Z,100.00
2023-04-21T20:21:43.941Z,100.00
2023-04-21T20:24:13.639Z,100.00
2023-04-21T20:26:43.174Z,100.00
2023-04-21T20:29:12.781Z,100.00
2023-04-21T20:31:42.579Z,100.00
2023-04-21T20:34:14.662Z,100.00
2023-04-21T20:36:44.920Z,100.00
2023-04-21T20:39:14.771Z,100.00
2023-04-21T20:41:46.625Z,100.00
2023-04-21T20:44:18.408Z,100.00
2023-04-21T20:46:48.036Z,100.00
2023-04-21T20:49:20.178Z,100.00
2023-04-21T20:51:49.701Z,100.00
2023-04-21T20:54:19.228Z,100.00
2023-04-21T20:56:48.733Z,100.00
2023-04-21T20:59:18.285Z,100.00
2023-04-21T21:01:47.870Z,100.00
2023-04-21T21:04:20.017Z,100.00
2023-04-21T21:06:50.012Z,100.00
2023-04-21T21:09:19.666Z,100.00
2023-04-21T21:11:49.477Z,100.00
2023-04-21T21:14:18.987Z,100.00
2023-04-21T21:16:48.849Z,100.00
2023-04-21T21:19:23.372Z,100.00
2023-04-21T21:21:52.895Z,100.00
2023-04-21T21:24:22.498Z,100.00
2023-04-21T21:26:51.970Z,100.00
2023-04-21T21:29:21.512Z,100.00
2023-04-21T21:31:51.086Z,100.00
2023-04-21T21:34:23.259Z,100.00
2023-04-21T21:36:52.756Z,100.00
2023-04-21T21:39:22.249Z,100.00
2023-04-21T21:41:51.761Z,100.00
2023-04-21T21:44:21.539Z,100.00
2023-04-21T21:46:52.325Z,100.00
2023-04-21T21:49:24.455Z,100.00
2023-04-21T21:51:54.779Z,100.00
2023-04-21T21:54:24.317Z,100.00
2023-04-21T21:56:53.890Z,100.00
2023-04-21T21:59:23.583Z,100.00
2023-04-21T22:01:54.271Z,100.00
2023-04-21T22:04:27.038Z,100.00
2023-04-21T22:06:56.579Z,100.00
2023-04-21T22:09:26.109Z,100.00
2023-04-21T22:11:55.622Z,100.00
2023-04-21T22:14:25.168Z,100.00
2023-04-21T22:16:57.475Z,100.00
2023-04-21T22:19:29.558Z,100.00
2023-04-21T22:21:59.105Z,100.00
2023-04-21T22:24:29.032Z,100.00
2023-04-21T22:26:58.535Z,100.00
2023-04-21T22:29:28.075Z,100.00
2023-04-21T22:31:57.567Z,100.00
2023-04-21T22:34:29.622Z,100.00
2023-04-21T22:36:59.149Z,100.00
2023-04-21T22:39:29.652Z,100.00
2023-04-21T22:41:59.127Z,100.00
2023-04-21T22:44:31.873Z,100.00
2023-04-21T22:47:01.460Z,100.00
2023-04-21T22:49:33.591Z,100.00
2023-04-21T22:52:03.179Z,100.00
2023-04-21T22:54:32.683Z,100.00
2023-04-21T22:57:02.280Z,100.00
2023-04-21T22:59:31.853Z,100.00
2023-04-21T23:02:01.448Z,100.00
2023-04-21T23:04:35.319Z,100.00
2023-04-21T23:07:05.256Z,100.00
2023-04-21T23:09:34.757Z,100.00
2023-04-21T23:12:06.276Z,100.00
2023-04-21T23:14:35.873Z,100.00
2023-04-21T23:17:05.370Z,100.00
2023-04-21T23:19:37.707Z,100.00
2023-04-21T23:22:07.484Z,100.00
2023-04-21T23:24:37.040Z,100.00
2023-04-21T23:27:06.764Z,100.00
2023-04-21T23:29:36.509Z,100.00
2023-04-21T23:32:06.889Z,100.00
2023-04-21T23:34:39.021Z,100.00
2023-04-21T23:37:08.540Z,100.00
2023-04-21T23:39:38.294Z,100.00
2023-04-21T23:42:09.457Z,100.00
2023-04-21T23:44:40.488Z,100.00
2023-04-21T23:47:10.064Z,100.00
2023-04-21T23:49:42.257Z,100.00
2023-04-21T23:52:12.227Z,100.00
2023-04-21T23:54:43.044Z,100.00
2023-04-21T23:57:12.610Z,100.00
2023-04-21T23:59:42.094Z,100.00
